Time;durP1;ratioP1;P1;durP2;ratioP2;P2;SDS_P1;SDS_P2;PMS_P1;PMS_P2;Temp;Humidity;BMP_temperature;BMP_pressure;BME280_temperature;BME280_humidity;BME280_pressure;Samples;Min_cycle;Max_cycle;Signal;HPM_P1;HPM_P2
2022/07/02 00:02:00;;;;;;;4.72;1.60;;;24.50;77.30;;;;;;5154980;27;20039;-68
2022/07/02 00:04:31;;;;;;;3.50;1.63;;;24.40;77.30;;;;;;5135596;27;20046;-68
2022/07/02 00:06:56;;;;;;;4.70;1.80;;;24.40;77.20;;;;;;5156383;27;20053;-68
2022/07/02 00:09:22;;;;;;;3.38;1.40;;;24.40;77.20;;;;;;5135817;27;20046;-66
2022/07/02 00:11:48;;;;;;;3.08;1.58;;;24.40;74.40;;;;;;5134869;27;20042;-68
2022/07/02 00:14:14;;;;;;;4.00;1.60;;;24.40;77.20;;;;;;5155024;27;20060;-66
2022/07/02 00:16:43;;;;;;;2.20;1.40;;;24.50;77.30;;;;;;5155313;27;20039;-64
2022/07/02 00:19:09;;;;;;;2.97;1.40;;;24.40;77.40;;;;;;5129879;27;20063;-68
2022/07/02 00:21:39;;;;;;;2.55;1.42;;;24.40;74.30;;;;;;5107942;28;20132;-68
2022/07/02 00:24:07;;;;;;;4.20;1.42;;;24.50;74.50;;;;;;5132275;27;20061;-68
2022/07/02 00:26:33;;;;;;;3.88;1.67;;;24.40;77.50;;;;;;5132153;27;20046;-69
2022/07/02 00:29:05;;;;;;;4.80;1.65;;;24.30;77.50;;;;;;5120157;27;20058;-68
2022/07/02 00:31:31;;;;;;;3.65;1.90;;;24.40;77.50;;;;;;5131579;27;20075;-63
2022/07/02 00:33:57;;;;;;;4.32;1.52;;;24.50;77.50;;;;;;5135252;27;20039;-68
2022/07/02 00:36:22;;;;;;;2.92;1.58;;;24.20;77.30;;;;;;5134314;27;20039;-68
2022/07/02 00:38:49;;;;;;;3.28;1.52;;;24.20;77.30;;;;;;5115604;27;20050;-68
2022/07/02 00:41:16;;;;;;;3.88;1.63;;;24.40;77.40;;;;;;5131464;27;20039;-64
2022/07/02 00:43:42;;;;;;;3.20;1.60;;;24.40;77.60;;;;;;5134480;27;20043;-68
2022/07/02 00:46:08;;;;;;;2.63;1.45;;;24.40;77.50;;;;;;5133141;27;20493;-68
2022/07/02 00:48:34;;;;;;;3.65;1.83;;;24.30;74.20;;;;;;5133908;27;20122;-67
2022/07/02 00:50:59;;;;;;;4.30;1.60;;;24.30;77.30;;;;;;5094579;27;20044;-67
2022/07/02 00:53:25;;;;;;;3.80;1.60;;;24.20;74.30;;;;;;5133542;27;20081;-67
2022/07/02 00:55:58;;;;;;;3.75;1.60;;;24.30;77.30;;;;;;5132736;27;20043;-68
2022/07/02 00:58:24;;;;;;;;;;;24.50;73.40;;;;;;5133383;27;20054;-67
2022/07/02 01:00:49;;;;;;;3.30;1.60;;;24.10;75.00;;;;;;5132830;27;19923;-69
2022/07/02 01:03:19;;;;;;;3.70;1.52;;;24.10;77.90;;;;;;5133288;27;20039;-68
2022/07/02 01:05:45;;;;;;;2.92;1.67;;;24.20;77.30;;;;;;5114324;28;20058;-68
2022/07/02 01:10:56;;;;;;;2.85;1.50;;;24.30;73.40;;;;;;5111696;28;20055;-66
2022/07/02 01:13:21;;;;;;;1.95;1.30;;;24.30;78.10;;;;;;5131812;27;20043;-69
2022/07/02 01:15:47;;;;;;;5.03;1.90;;;24.30;74.60;;;;;;5131491;27;20047;-69
2022/07/02 01:18:17;;;;;;;2.83;1.33;;;24.20;77.40;;;;;;5130906;27;20043;-61
2022/07/02 01:20:44;;;;;;;4.25;1.55;;;24.10;77.30;;;;;;5112148;28;20390;-67
2022/07/02 01:23:10;;;;;;;5.28;1.67;;;24.20;77.50;;;;;;5110664;28;20046;-68
2022/07/02 01:25:36;;;;;;;3.42;1.58;;;24.30;74.50;;;;;;5112007;28;20043;-68
2022/07/02 01:28:02;;;;;;;2.63;1.40;;;24.20;77.50;;;;;;5112224;28;20071;-68
2022/07/02 01:30:28;;;;;;;3.50;1.60;;;24.20;77.40;;;;;;5111462;28;20516;-68
2022/07/02 01:32:53;;;;;;;3.00;1.35;;;24.20;77.50;;;;;;5111588;28;20078;-68
2022/07/02 01:35:19;;;;;;;3.40;1.67;;;24.10;77.30;;;;;;5111269;28;20123;-68
2022/07/02 01:37:45;;;;;;;4.22;1.95;;;;;;;;;;5112670;28;20048;-68
2022/07/02 01:40:11;;;;;;;4.65;1.60;;;24.00;72.50;;;;;;5094619;28;20047;-67
2022/07/02 01:42:37;;;;;;;3.47;1.65;;;24.20;77.50;;;;;;5112225;28;20043;-66
2022/07/02 01:45:04;;;;;;;4.57;1.92;;;24.10;74.90;;;;;;5111150;28;20036;-68
2022/07/02 01:47:29;;;;;;;3.67;1.70;;;24.10;74.50;;;;;;5112816;28;20130;-67
2022/07/02 01:49:55;;;;;;;3.35;1.65;;;24.00;74.30;;;;;;5113197;28;20122;-69
2022/07/02 01:52:21;;;;;;;3.88;1.63;;;24.20;74.50;;;;;;5112796;28;20097;-67
2022/07/02 01:54:46;;;;;;;2.80;1.30;;;24.00;77.30;;;;;;5112138;28;20044;-64
2022/07/02 01:57:12;;;;;;;3.20;1.60;;;24.20;74.60;;;;;;5110389;28;20127;-67
2022/07/02 01:59:38;;;;;;;3.65;1.52;;;24.20;74.60;;;;;;5110955;28;20051;-68
2022/07/02 02:02:04;;;;;;;4.07;1.85;;;24.30;74.70;;;;;;5111357;28;20052;-68
2022/07/02 02:04:30;;;;;;;3.65;1.67;;;24.40;77.70;;;;;;5109410;28;20044;-68
2022/07/02 02:06:56;;;;;;;2.95;1.45;;;;;;;;;;5110225;28;20044;-65
2022/07/02 02:09:22;;;;;;;4.45;2.03;;;24.20;77.40;;;;;;5110138;28;20385;-65
2022/07/02 02:11:48;;;;;;;6.15;1.77;;;24.00;74.40;;;;;;5112637;28;20164;-69
2022/07/02 02:14:13;;;;;;;3.58;1.67;;;24.00;74.40;;;;;;5112662;28;20039;-68
2022/07/02 02:16:39;;;;;;;5.20;1.80;;;24.00;77.00;;;;;;5109933;28;20040;-65
2022/07/02 02:19:05;;;;;;;4.28;1.60;;;24.20;77.50;;;;;;5115094;28;20047;-68
2022/07/02 02:21:31;;;;;;;3.42;1.50;;;23.90;77.30;;;;;;5132385;28;20047;-67
2022/07/02 02:23:57;;;;;;;3.63;1.55;;;24.00;77.50;;;;;;5130968;28;20039;-68
2022/07/02 02:26:23;;;;;;;3.38;1.52;;;24.00;74.40;;;;;;5131024;28;20039;-68
2022/07/02 02:28:49;;;;;;;4.15;1.50;;;24.00;77.40;;;;;;5133241;28;20385;-67
2022/07/02 02:31:14;;;;;;;2.88;1.40;;;24.00;77.30;;;;;;5131451;27;20495;-66
2022/07/02 02:33:41;;;;;;;3.13;1.40;;;24.10;77.30;;;;;;5134019;27;20051;-67
2022/07/02 02:36:06;;;;;;;2.97;1.55;;;23.90;75.00;;;;;;5133673;27;20039;-67
2022/07/02 02:38:36;;;;;;;3.67;1.70;;;24.00;74.30;;;;;;5135668;27;20087;-66
2022/07/02 02:41:05;;;;;;;2.97;1.60;;;24.10;74.60;;;;;;5137504;27;20058;-68
2022/07/02 02:43:32;;;;;;;3.47;1.50;;;24.20;77.60;;;;;;5136514;27;20039;-64
2022/07/02 02:45:58;;;;;;;3.95;1.50;;;24.20;74.80;;;;;;5135822;27;20047;-68
2022/07/02 02:48:23;;;;;;;3.58;1.63;;;24.00;77.40;;;;;;5133924;27;20369;-67
2022/07/02 02:50:49;;;;;;;4.80;1.60;;;24.00;77.30;;;;;;5135679;27;20471;-67
2022/07/02 02:53:15;;;;;;;5.60;1.60;;;24.00;77.30;;;;;;5136071;27;20043;-68
2022/07/02 02:55:41;;;;;;;2.75;1.58;;;23.60;74.30;;;;;;5135681;27;20054;-65
2022/07/02 02:58:06;;;;;;;3.65;1.50;;;24.00;74.50;;;;;;5133837;27;20515;-68
2022/07/02 03:00:32;;;;;;;4.13;1.55;;;;;;;;;;5134996;27;20043;-68
2022/07/02 03:02:58;;;;;;;3.70;1.65;;;24.00;77.30;;;;;;5135647;27;20050;-65
2022/07/02 03:05:24;;;;;;;3.90;1.40;;;24.00;77.60;;;;;;5136917;27;20472;-68
2022/07/02 03:07:50;;;;;;;3.80;1.58;;;24.00;77.40;;;;;;5136089;27;20043;-68
2022/07/02 03:10:15;;;;;;;2.40;1.27;;;24.10;77.30;;;;;;5135224;27;20035;-68
2022/07/02 03:12:41;;;;;;;5.05;1.75;;;23.90;77.40;;;;;;5135800;27;20408;-67
2022/07/02 03:15:07;;;;;;;2.50;1.38;;;24.00;77.50;;;;;;5133673;27;20091;-68
2022/07/02 03:17:33;;;;;;;4.95;2.15;;;23.80;74.10;;;;;;5136045;27;20106;-69
2022/07/02 03:19:59;;;;;;;5.00;2.08;;;24.00;77.40;;;;;;5147267;27;20046;-68
2022/07/02 03:22:25;;;;;;;3.45;1.50;;;23.80;77.30;;;;;;5155578;27;20411;-68
2022/07/02 03:24:51;;;;;;;4.10;1.60;;;24.10;77.70;;;;;;5156127;27;20042;-69
2022/07/02 03:27:16;;;;;;;3.70;1.60;;;23.70;77.40;;;;;;5137513;27;20451;-67
2022/07/02 03:29:42;;;;;;;3.60;1.70;;;24.00;77.40;;;;;;5135524;27;20045;-67
2022/07/02 03:32:08;;;;;;;4.00;1.67;;;24.10;77.60;;;;;;5156025;27;20043;-67
2022/07/02 03:34:33;;;;;;;5.25;1.67;;;23.90;77.50;;;;;;5151653;27;20042;-68
2022/07/02 03:36:59;;;;;;;4.45;1.70;;;24.20;74.80;;;;;;5156274;27;20078;-70
2022/07/02 03:39:25;;;;;;;4.57;1.85;;;24.00;77.40;;;;;;5137671;27;20110;-65
2022/07/02 03:41:51;;;;;;;5.13;1.70;;;24.00;77.50;;;;;;5135907;27;20550;-66
2022/07/02 03:44:17;;;;;;;3.55;1.75;;;23.80;77.40;;;;;;5137016;27;20039;-67
2022/07/02 03:46:42;;;;;;;3.80;1.40;;;24.00;77.40;;;;;;5154803;27;20039;-70
2022/07/02 03:49:08;;;;;;;4.18;1.42;;;24.00;74.50;;;;;;5155927;27;20046;-70
2022/07/02 03:51:34;;;;;;;4.32;1.80;;;23.90;74.50;;;;;;5137328;27;20468;-70
2022/07/02 03:54:00;;;;;;;2.55;1.55;;;24.00;74.20;;;;;;5155204;27;20042;-69
2022/07/02 03:56:25;;;;;;;4.88;1.55;;;23.90;77.30;;;;;;5135720;27;20047;-68
2022/07/02 03:58:51;;;;;;;5.95;1.85;;;24.20;74.70;;;;;;5156727;27;20083;-70
2022/07/02 04:01:17;;;;;;;4.30;1.73;;;24.00;77.40;;;;;;5153635;27;20430;-70
2022/07/02 04:03:43;;;;;;;4.70;2.10;;;24.20;77.60;;;;;;5155141;27;20399;-69
2022/07/02 04:06:09;;;;;;;4.82;1.70;;;24.00;77.30;;;;;;5146922;27;20539;-69
2022/07/02 04:08:34;;;;;;;4.13;1.58;;;24.00;74.30;;;;;;5136312;27;20046;-69
2022/07/02 04:11:00;;;;;;;4.38;1.60;;;24.20;77.50;;;;;;5154422;27;20051;-69
2022/07/02 04:13:26;;;;;;;4.50;1.75;;;24.20;77.40;;;;;;5135484;27;20047;-63
2022/07/02 04:15:52;;;;;;;5.93;2.20;;;24.20;74.60;;;;;;5132388;27;20129;-69
2022/07/02 04:18:18;;;;;;;5.32;1.73;;;;;;;;;;5124587;27;20088;-67
2022/07/02 04:20:44;;;;;;;5.03;1.95;;;24.50;77.50;;;;;;5153691;27;20050;-69
2022/07/02 04:23:10;;;;;;;5.88;1.80;;;24.20;77.30;;;;;;5153186;27;20117;-69
2022/07/02 04:25:37;;;;;;;4.05;1.98;;;24.40;77.30;;;;;;5118954;27;20472;-68
2022/07/02 04:28:03;;;;;;;4.20;1.67;;;24.30;74.50;;;;;;5119630;27;20078;-69
2022/07/02 04:30:29;;;;;;;5.47;1.80;;;24.30;74.40;;;;;;5137186;27;20526;-67
2022/07/02 04:32:55;;;;;;;6.70;1.70;;;24.50;77.30;;;;;;5134495;27;20046;-62
2022/07/02 04:35:20;;;;;;;3.97;1.70;;;24.20;77.20;;;;;;5135659;27;20031;-68
2022/07/02 04:37:46;;;;;;;4.50;1.80;;;24.10;77.10;;;;;;5135449;27;20046;-69
2022/07/02 04:40:12;;;;;;;5.53;1.95;;;24.40;74.30;;;;;;5137113;27;20129;-70
2022/07/02 04:42:38;;;;;;;3.85;1.70;;;24.20;77.30;;;;;;5155152;27;20070;-70
2022/07/02 04:45:04;;;;;;;2.67;1.60;;;24.30;74.30;;;;;;5154772;27;20368;-68
2022/07/02 04:47:30;;;;;;;5.47;2.00;;;24.40;77.30;;;;;;5118929;27;20043;-68
2022/07/02 04:49:56;;;;;;;4.07;1.73;;;24.30;77.20;;;;;;5153953;27;20463;-67
2022/07/02 04:52:21;;;;;;;3.72;1.80;;;24.30;77.20;;;;;;5135084;27;20041;-68
2022/07/02 04:54:47;;;;;;;4.68;2.00;;;24.60;77.40;;;;;;5153408;27;20043;-70
2022/07/02 04:57:13;;;;;;;5.88;1.65;;;24.40;77.60;;;;;;5135149;27;20042;-69
2022/07/02 04:59:38;;;;;;;4.18;1.80;;;24.90;77.10;;;;;;5135266;27;22931;-68
2022/07/02 05:02:05;;;;;;;6.70;1.75;;;24.50;74.00;;;;;;5154306;27;20396;-69
2022/07/02 05:04:30;;;;;;;4.32;1.80;;;24.90;76.20;;;;;;5153555;27;20058;-63
2022/07/02 05:06:57;;;;;;;3.83;1.60;;;25.10;76.00;;;;;;5128276;27;20051;-66
2022/07/02 05:09:23;;;;;;;4.30;1.70;;;25.60;76.20;;;;;;5153733;27;20053;-69
2022/07/02 05:11:49;;;;;;;4.50;1.75;;;25.30;73.00;;;;;;5154728;27;20042;-68
2022/07/02 05:14:14;;;;;;;4.20;1.75;;;25.30;72.50;;;;;;5119455;27;20051;-69
2022/07/02 05:16:41;;;;;;;5.82;2.10;;;25.70;72.70;;;;;;5154409;27;20046;-70
2022/07/02 05:19:07;;;;;;;10.45;2.13;;;25.70;71.50;;;;;;5152827;27;20043;-69
2022/07/02 05:21:32;;;;;;;3.53;1.70;;;26.00;71.90;;;;;;5154382;27;20050;-70
2022/07/02 05:23:58;;;;;;;4.55;2.17;;;25.90;71.70;;;;;;5152661;27;20057;-71
2022/07/02 05:26:25;;;;;;;5.07;2.00;;;26.60;74.80;;;;;;5154147;27;20479;-71
2022/07/02 05:28:50;;;;;;;3.53;2.10;;;26.40;71.50;;;;;;5154823;27;20103;-70
2022/07/02 05:31:16;;;;;;;5.35;2.03;;;26.30;71.30;;;;;;5154028;27;20496;-70
2022/07/02 05:33:42;;;;;;;3.75;1.88;;;26.60;71.10;;;;;;5149611;27;20038;-70
2022/07/02 05:36:07;;;;;;;3.70;1.88;;;26.60;71.00;;;;;;5152084;27;20062;-70
2022/07/02 05:38:33;;;;;;;5.82;2.53;;;26.50;70.50;;;;;;5135460;27;20133;-70
2022/07/02 05:40:59;;;;;;;4.18;1.90;;;26.80;70.80;;;;;;5152721;27;20123;-74
2022/07/02 05:43:25;;;;;;;7.38;3.10;;;26.70;70.20;;;;;;5101018;27;20559;-75
2022/07/02 05:45:51;;;;;;;7.60;3.25;;;26.70;70.20;;;;;;5135308;27;20130;-73
2022/07/02 05:48:16;;;;;;;7.55;3.47;;;27.10;70.10;;;;;;5114128;28;20103;-75
2022/07/02 05:50:42;;;;;;;5.53;2.80;;;26.70;70.00;;;;;;5132684;28;20089;-75
2022/07/02 05:53:08;;;;;;;5.68;2.92;;;26.80;69.60;;;;;;5133622;27;20055;-75
2022/07/02 05:55:34;;;;;;;8.07;2.80;;;26.80;69.80;;;;;;5154360;27;20103;-75
2022/07/02 05:58:00;;;;;;;6.57;3.30;;;26.60;69.40;;;;;;5131290;27;20043;-75
2022/07/02 06:00:25;;;;;;;6.90;3.30;;;26.50;69.80;;;;;;5135535;27;20547;-68
2022/07/02 06:02:51;;;;;;;10.52;3.67;;;26.60;69.90;;;;;;5154230;27;20112;-71
2022/07/02 06:08:01;;;;;;;4.78;2.70;;;26.40;68.80;;;;;;5131874;27;20123;-69
2022/07/02 06:10:27;;;;;;;6.97;2.97;;;26.60;69.70;;;;;;5134117;27;20114;-70
2022/07/02 06:12:52;;;;;;;7.40;2.70;;;26.40;69.80;;;;;;5147493;27;20050;-71
2022/07/02 06:15:19;;;;;;;7.65;3.00;;;26.50;69.70;;;;;;5157539;27;20114;-70
2022/07/02 06:17:45;;;;;;;7.75;3.17;;;26.50;70.00;;;;;;5091371;27;20100;-71
2022/07/02 06:20:11;;;;;;;6.10;2.97;;;26.90;69.80;;;;;;5157029;27;20475;-71
2022/07/02 06:22:37;;;;;;;5.38;2.75;;;26.40;69.60;;;;;;5138975;27;20104;-70
2022/07/02 06:25:04;;;;;;;5.20;2.60;;;26.60;69.60;;;;;;5138669;27;20031;-70
2022/07/02 06:27:34;;;;;;;6.50;3.15;;;26.60;69.40;;;;;;5139057;27;20392;-71
2022/07/02 06:30:03;;;;;;;6.75;2.55;;;26.60;69.70;;;;;;5136654;27;20054;-71
2022/07/02 06:32:29;;;;;;;4.85;2.63;;;26.40;69.50;;;;;;5156639;27;20107;-67
2022/07/02 06:34:56;;;;;;;7.03;3.10;;;26.60;69.50;;;;;;5135674;27;20035;-67
2022/07/02 06:37:21;;;;;;;7.40;3.10;;;26.60;69.60;;;;;;5113025;27;20480;-67
2022/07/02 06:39:47;;;;;;;9.48;2.90;;;26.60;69.40;;;;;;5139396;27;20129;-68
2022/07/02 06:42:18;;;;;;;4.63;2.45;;;26.60;69.40;;;;;;5137120;27;20115;-68
2022/07/02 06:44:44;;;;;;;6.20;2.67;;;26.40;68.20;;;;;;5137750;27;20042;-68
2022/07/02 06:47:10;;;;;;;8.43;3.05;;;26.80;69.60;;;;;;5155226;27;20379;-69
2022/07/02 06:49:36;;;;;;;6.82;2.50;;;26.40;69.00;;;;;;5121162;27;20129;-68
2022/07/02 06:52:02;;;;;;;14.48;2.60;;;26.50;69.20;;;;;;5155485;27;20053;-67
2022/07/02 06:54:28;;;;;;;6.18;2.42;;;26.40;68.80;;;;;;5136560;27;20373;-67
2022/07/02 06:56:53;;;;;;;6.22;2.30;;;26.50;69.40;;;;;;5156996;27;20404;-66
2022/07/02 06:59:19;;;;;;;7.25;2.55;;;26.40;69.10;;;;;;5156135;27;20195;-68
2022/07/02 07:01:45;;;;;;;7.70;2.38;;;26.30;69.10;;;;;;5137942;27;20106;-70
2022/07/02 07:04:10;;;;;;;5.05;2.10;;;26.50;69.00;;;;;;5138939;27;20049;-62
2022/07/02 07:06:37;;;;;;;9.30;2.20;;;26.40;69.10;;;;;;5146943;27;20396;-64
2022/07/02 07:09:03;;;;;;;8.25;2.47;;;26.40;68.90;;;;;;5155342;27;20046;-62
2022/07/02 07:11:28;;;;;;;5.43;2.33;;;26.40;71.90;;;;;;5156950;27;20046;-62
2022/07/02 07:13:54;;;;;;;5.00;2.42;;;26.50;68.90;;;;;;5098214;27;20448;-68
2022/07/02 07:16:20;;;;;;;6.32;2.20;;;26.40;69.00;;;;;;5133836;27;20039;-62
2022/07/02 07:18:59;;;;;;;3.78;1.70;;;26.50;68.60;;;;;;5155371;27;20041;-61
2022/07/02 07:21:25;;;;;;;7.53;2.13;;;26.30;67.50;;;;;;5118124;27;20051;-62
2022/07/02 07:23:51;;;;;;;4.72;1.73;;;26.50;68.70;;;;;;5130493;27;20138;-65
2022/07/02 07:26:16;;;;;;;4.20;1.80;;;26.40;68.50;;;;;;5155081;27;20091;-63
2022/07/02 07:28:42;;;;;;;4.22;1.90;;;26.50;68.30;;;;;;5138026;27;20054;-63
2022/07/02 07:31:08;;;;;;;3.38;1.50;;;26.50;68.40;;;;;;5157788;27;20445;-63
2022/07/02 07:33:33;;;;;;;4.25;1.70;;;26.30;68.10;;;;;;5156508;27;20046;-63
2022/07/02 07:35:59;;;;;;;6.93;1.83;;;26.30;68.00;;;;;;5120880;27;20046;-64
2022/07/02 07:38:25;;;;;;;4.70;1.77;;;26.10;67.80;;;;;;5135820;27;20122;-63
2022/07/02 07:40:51;;;;;;;4.65;1.95;;;26.30;67.90;;;;;;5137710;27;20116;-66
2022/07/02 07:43:16;;;;;;;3.75;1.40;;;26.70;71.10;;;;;;5155192;27;20488;-64
2022/07/02 07:45:42;;;;;;;6.18;1.77;;;26.50;68.00;;;;;;5154544;27;20526;-64
2022/07/02 07:48:08;;;;;;;4.90;1.55;;;26.30;67.60;;;;;;5143649;27;20156;-64
2022/07/02 07:50:33;;;;;;;4.82;1.58;;;26.40;68.00;;;;;;5131821;27;20031;-65
2022/07/02 07:53:00;;;;;;;4.57;1.60;;;26.20;67.70;;;;;;5153579;27;20050;-62
2022/07/02 07:55:26;;;;;;;3.58;1.48;;;26.20;67.60;;;;;;5154478;27;20027;-64
2022/07/02 07:57:52;;;;;;;4.78;1.13;;;26.60;68.10;;;;;;5147179;27;20054;-64
2022/07/02 08:00:18;;;;;;;11.90;1.90;;;26.30;67.70;;;;;;5133891;27;20046;-68
2022/07/02 08:02:43;;;;;;;4.95;1.40;;;26.40;67.70;;;;;;5119477;27;20377;-68
2022/07/02 08:05:09;;;;;;;4.97;1.40;;;26.50;67.50;;;;;;5137800;27;20057;-68
2022/07/02 08:07:38;;;;;;;4.55;1.30;;;26.40;67.40;;;;;;5132502;27;20091;-65
2022/07/02 08:10:08;;;;;;;3.97;1.30;;;26.40;67.20;;;;;;5137607;27;20043;-69
2022/07/02 08:12:35;;;;;;;3.50;1.45;;;26.20;67.50;;;;;;5140993;27;20045;-62
2022/07/02 08:15:00;;;;;;;2.80;1.10;;;26.40;67.40;;;;;;5135602;27;20043;-64
2022/07/02 08:17:28;;;;;;;3.38;1.48;;;26.70;67.60;;;;;;5144153;27;20451;-65
2022/07/02 08:19:57;;;;;;;4.85;1.45;;;26.30;67.00;;;;;;5151583;27;20054;-62
2022/07/02 08:22:23;;;;;;;5.68;1.88;;;26.40;65.80;;;;;;5154170;27;20050;-62
2022/07/02 08:24:49;;;;;;;2.72;1.27;;;26.40;69.90;;;;;;5150761;27;20103;-62
2022/07/02 08:27:15;;;;;;;4.43;1.40;;;26.10;66.90;;;;;;5144830;27;20389;-64
2022/07/02 08:29:41;;;;;;;4.80;1.20;;;26.50;67.10;;;;;;5138249;27;20046;-64
2022/07/02 08:32:07;;;;;;;3.33;1.30;;;26.10;67.10;;;;;;5144600;27;20035;-63
2022/07/02 08:34:33;;;;;;;2.75;1.05;;;26.30;67.10;;;;;;5147144;27;20400;-65
2022/07/02 08:36:59;;;;;;;4.25;1.20;;;26.30;67.20;;;;;;5137524;27;20057;-64
2022/07/02 08:39:25;;;;;;;4.68;1.35;;;26.20;67.00;;;;;;5135271;27;20035;-64
2022/07/02 08:41:51;;;;;;;2.83;1.30;;;26.30;67.10;;;;;;5153597;27;20045;-64
2022/07/02 08:44:18;;;;;;;2.78;1.08;;;26.20;66.90;;;;;;5136068;27;20051;-64
2022/07/02 08:46:43;;;;;;;3.75;1.70;;;26.20;66.90;;;;;;5103970;27;20047;-64
2022/07/02 08:49:11;;;;;;;3.10;1.30;;;26.20;66.60;;;;;;5130339;27;20054;-65
2022/07/02 08:51:36;;;;;;;9.68;1.48;;;26.30;66.90;;;;;;5148121;27;20134;-63
2022/07/02 08:54:02;;;;;;;3.58;1.08;;;26.30;66.40;;;;;;5155429;27;20413;-62
2022/07/02 08:56:29;;;;;;;3.28;1.20;;;26.40;66.50;;;;;;5127797;27;20047;-62
2022/07/02 08:58:55;;;;;;;2.40;1.15;;;26.60;67.10;;;;;;5150686;27;20042;-62
2022/07/02 09:01:21;;;;;;;3.67;1.10;;;26.60;66.70;;;;;;5115356;27;20043;-69
2022/07/02 09:03:47;;;;;;;3.08;1.10;;;26.40;67.20;;;;;;5115853;27;20039;-62
2022/07/02 09:06:13;;;;;;;2.63;1.20;;;26.50;66.90;;;;;;5134799;27;20046;-62
2022/07/02 09:08:40;;;;;;;3.20;1.20;;;26.50;66.30;;;;;;5112466;27;20039;-68
2022/07/02 09:11:06;;;;;;;4.00;1.30;;;26.60;66.80;;;;;;5133308;27;20042;-62
2022/07/02 09:13:31;;;;;;;2.53;0.88;;;26.50;66.30;;;;;;5124646;27;20031;-63
2022/07/02 09:15:57;;;;;;;2.25;1.00;;;26.80;66.60;;;;;;5143522;27;20074;-62
2022/07/02 09:18:23;;;;;;;2.10;1.25;;;26.30;66.00;;;;;;5141971;27;20567;-63
2022/07/02 09:20:48;;;;;;;1.75;0.90;;;26.70;66.00;;;;;;5134609;27;20051;-69
2022/07/02 09:23:20;;;;;;;3.63;1.20;;;26.40;65.50;;;;;;5134537;27;20491;-68
2022/07/02 09:25:47;;;;;;;3.88;1.25;;;26.50;65.10;;;;;;5132967;27;20038;-69
2022/07/02 09:28:13;;;;;;;2.97;1.10;;;26.50;66.10;;;;;;5102565;28;20087;-70
2022/07/02 09:30:39;;;;;;;3.15;1.05;;;26.50;66.10;;;;;;5099811;28;20046;-67
2022/07/02 09:33:33;;;;;;;2.83;1.10;;;26.60;65.40;;;;;;5143130;27;20053;-67
2022/07/02 09:36:00;;;;;;;3.83;1.13;;;26.30;64.60;;;;;;5134315;28;20455;-67
2022/07/02 09:38:26;;;;;;;1.75;0.93;;;26.30;65.60;;;;;;5139492;27;20045;-67
2022/07/02 09:40:56;;;;;;;5.63;1.10;;;26.40;65.30;;;;;;5134703;27;20403;-66
2022/07/02 09:43:29;;;;;;;3.53;1.13;;;26.40;65.80;;;;;;5110393;27;20051;-67
2022/07/02 09:45:56;;;;;;;2.38;0.90;;;26.30;65.90;;;;;;5158567;27;20043;-64
2022/07/02 09:48:22;;;;;;;1.83;0.75;;;26.30;65.50;;;;;;5116723;27;20126;-64
2022/07/02 09:50:48;;;;;;;0.90;0.63;;;26.40;65.00;;;;;;5149220;27;20134;-64
2022/07/02 09:53:13;;;;;;;3.88;1.05;;;26.40;65.20;;;;;;5137042;27;20504;-65
2022/07/02 09:55:39;;;;;;;2.08;0.80;;;26.20;65.10;;;;;;5158537;27;20043;-63
2022/07/02 09:58:05;;;;;;;2.22;0.88;;;26.50;65.20;;;;;;5158337;27;20035;-64
2022/07/02 10:00:33;;;;;;;3.92;0.80;;;26.20;64.90;;;;;;5154928;27;20494;-65
2022/07/02 10:03:00;;;;;;;3.33;0.90;;;26.30;64.80;;;;;;5159096;27;20396;-65
2022/07/02 10:05:33;;;;;;;2.97;1.10;;;26.00;64.60;;;;;;5137214;27;20047;-65
2022/07/02 10:08:00;;;;;;;1.13;0.60;;;25.80;64.60;;;;;;5158656;27;20038;-65
2022/07/02 10:10:30;;;;;;;3.00;0.85;;;26.00;64.70;;;;;;5155706;27;20195;-62
2022/07/02 10:12:56;;;;;;;1.48;0.65;;;26.30;64.80;;;;;;5135241;27;20454;-67
2022/07/02 10:15:24;;;;;;;1.98;0.95;;;26.30;64.70;;;;;;5149195;27;20434;-69
2022/07/02 10:17:53;;;;;;;2.45;1.15;;;26.30;64.60;;;;;;5117766;27;20104;-69
2022/07/02 10:20:19;;;;;;;2.22;0.70;;;26.20;64.70;;;;;;5120995;27;20051;-67
2022/07/02 10:22:45;;;;;;;2.30;1.00;;;26.10;64.30;;;;;;5130195;27;20051;-69
2022/07/02 10:25:10;;;;;;;2.67;1.00;;;26.30;64.80;;;;;;5138478;27;20069;-69
2022/07/02 10:27:36;;;;;;;2.22;0.70;;;26.40;65.20;;;;;;5119330;27;20451;-69
2022/07/02 10:30:02;;;;;;;1.45;0.70;;;26.10;64.20;;;;;;5121565;27;20054;-63
2022/07/02 10:32:48;;;;;;;5.63;1.08;;;26.20;63.90;;;;;;5122543;27;20049;-64
2022/07/02 10:35:15;;;;;;;2.95;0.90;;;26.40;63.10;;;;;;5141539;27;20119;-68
2022/07/02 10:37:42;;;;;;;2.60;0.93;;;26.10;64.40;;;;;;5128158;27;20051;-68
2022/07/02 10:40:08;;;;;;;5.00;1.13;;;26.40;64.90;;;;;;5158136;27;20457;-63
2022/07/02 10:42:38;;;;;;;4.50;1.02;;;26.50;64.30;;;;;;5118756;27;20046;-64
2022/07/02 10:45:14;;;;;;;2.00;0.75;;;26.40;64.70;;;;;;5125703;27;20560;-68
2022/07/02 10:47:56;;;;;;;1.05;0.80;;;26.30;65.20;;;;;;5118972;27;20538;-67
2022/07/02 10:50:40;;;;;;;3.17;0.80;;;26.30;64.80;;;;;;5127901;27;20050;-63
2022/07/02 10:53:19;;;;;;;2.40;0.80;;;26.40;63.40;;;;;;5155781;27;20039;-62
2022/07/02 10:55:51;;;;;;;3.90;0.93;;;26.50;63.50;;;;;;5147694;27;20038;-62
2022/07/02 10:58:25;;;;;;;2.28;1.02;;;26.40;63.50;;;;;;5139252;27;20502;-62
2022/07/02 11:00:51;;;;;;;1.13;0.75;;;26.60;65.30;;;;;;5137769;27;20043;-62
2022/07/02 11:03:21;;;;;;;2.47;0.90;;;26.30;64.70;;;;;;5137184;27;20053;-62
2022/07/02 11:06:02;;;;;;;3.70;0.85;;;26.50;63.70;;;;;;5147882;27;20046;-62
2022/07/02 11:08:46;;;;;;;2.30;1.00;;;26.30;63.90;;;;;;5153464;27;20057;-62
2022/07/02 11:11:17;;;;;;;3.03;1.20;;;26.50;64.00;;;;;;5137240;27;20054;-66
2022/07/02 11:13:55;;;;;;;2.55;1.00;;;26.30;68.30;;;;;;5133165;27;20526;-62
2022/07/02 11:16:43;;;;;;;3.22;1.20;;;26.20;63.80;;;;;;5156306;27;20082;-62
2022/07/02 11:19:12;;;;;;;1.88;1.00;;;26.20;65.40;;;;;;5119507;27;20084;-63
2022/07/02 11:21:39;;;;;;;3.40;1.10;;;26.30;65.20;;;;;;5137003;27;20066;-65
2022/07/02 11:24:04;;;;;;;3.70;0.90;;;26.10;65.10;;;;;;5137708;27;20103;-62
2022/07/02 11:26:30;;;;;;;3.47;0.88;;;26.00;64.70;;;;;;5137133;27;20133;-63
2022/07/02 11:29:01;;;;;;;1.58;0.88;;;26.10;64.90;;;;;;5138557;27;20046;-63
2022/07/02 11:31:27;;;;;;;2.17;0.85;;;26.30;65.60;;;;;;5137620;27;20506;-62
2022/07/02 11:33:54;;;;;;;4.88;1.20;;;26.10;64.80;;;;;;5153757;27;20130;-62
2022/07/02 11:36:20;;;;;;;2.70;1.10;;;26.30;65.40;;;;;;5136925;27;20045;-64
2022/07/02 11:38:47;;;;;;;2.83;0.95;;;26.30;64.90;;;;;;5156913;27;20035;-66
2022/07/02 11:41:26;;;;;;;3.00;1.10;;;26.30;65.10;;;;;;5155536;27;20038;-65
2022/07/02 11:43:54;;;;;;;3.38;1.02;;;26.60;64.50;;;;;;5122582;27;20062;-65
2022/07/02 11:46:21;;;;;;;2.30;0.93;;;26.50;65.70;;;;;;5118021;27;20047;-65
2022/07/02 11:48:48;;;;;;;1.92;0.80;;;26.50;65.80;;;;;;5093611;27;20110;-62
2022/07/02 11:51:14;;;;;;;3.83;1.08;;;26.60;65.90;;;;;;5156759;27;20054;-63
2022/07/02 11:53:39;;;;;;;2.50;1.10;;;26.60;65.20;;;;;;5154529;27;20046;-62
2022/07/02 11:56:07;;;;;;;3.22;1.20;;;26.50;65.50;;;;;;5154838;27;20053;-63
2022/07/02 11:58:44;;;;;;;1.80;0.90;;;26.40;65.60;;;;;;5116685;27;20053;-63
2022/07/02 12:01:21;;;;;;;3.15;1.02;;;26.60;66.00;;;;;;5125295;27;20042;-64
2022/07/02 12:03:48;;;;;;;1.50;0.82;;;26.60;65.90;;;;;;5104748;27;20043;-62
2022/07/02 12:06:14;;;;;;;4.03;0.77;;;26.50;65.50;;;;;;5117293;27;20557;-62
2022/07/02 12:08:40;;;;;;;1.58;0.80;;;26.70;65.30;;;;;;5123988;27;20047;-63
2022/07/02 12:11:16;;;;;;;1.48;0.80;;;26.60;65.50;;;;;;5137101;27;20115;-62
2022/07/02 12:13:42;;;;;;;2.72;1.20;;;26.70;66.00;;;;;;5134357;27;20095;-62
2022/07/02 12:16:12;;;;;;;3.80;1.13;;;26.60;68.50;;;;;;5134637;27;20043;-62
2022/07/02 12:18:39;;;;;;;4.35;0.98;;;26.50;65.70;;;;;;5116114;27;20050;-64
2022/07/02 12:21:13;;;;;;;1.92;0.90;;;26.70;65.10;;;;;;5120817;27;20043;-66
2022/07/02 12:23:48;;;;;;;3.03;1.10;;;26.60;65.70;;;;;;5151469;27;20042;-64
2022/07/02 12:26:23;;;;;;;2.40;0.82;;;26.60;64.20;;;;;;5154896;27;20038;-62
2022/07/02 12:31:54;;;;;;;3.83;1.10;;;26.60;65.90;;;;;;5121643;27;20099;-62
2022/07/02 12:34:22;;;;;;;2.72;1.08;;;26.50;64.00;;;;;;5131598;27;20173;-64
2022/07/02 12:36:55;;;;;;;4.15;1.38;;;26.40;65.30;;;;;;5156089;27;20039;-62
2022/07/02 12:39:36;;;;;;;3.88;1.15;;;26.20;66.00;;;;;;5136488;27;20057;-62
2022/07/02 12:42:11;;;;;;;1.70;0.90;;;26.40;65.50;;;;;;5156001;27;20089;-62
2022/07/02 12:44:37;;;;;;;3.60;1.08;;;26.50;65.80;;;;;;5153458;27;20070;-62
2022/07/02 12:47:03;;;;;;;2.88;1.17;;;26.40;65.40;;;;;;5155859;27;20074;-62
2022/07/02 12:49:29;;;;;;;2.55;1.00;;;26.60;65.30;;;;;;5129784;27;20126;-63
2022/07/02 12:51:59;;;;;;;4.78;0.90;;;26.60;65.60;;;;;;5135104;27;20051;-62
2022/07/02 12:54:36;;;;;;;3.92;1.08;;;26.70;66.00;;;;;;5126420;27;20046;-63
2022/07/02 12:57:12;;;;;;;3.90;1.00;;;26.60;66.00;;;;;;5152934;27;20046;-62